Latest Weather Observations for Hervey Bay

IDQ60801

Issued at 3:05 pm EST Saturday 23 August 2014 (issued every 30 minutes, with the page automatically refreshed every 10 minutes)

About weather observations | Map of weather stations | Latest weather observations for QLD | Other Formats
Station Details ID: 040405 Name: HERVEY BAY AIRPORT Lat: -25.32 Lon: 152.88 Height: 12.98 m
Data from the previous 72 hours. | See also: Recent months at Hervey Bay
Date/Time
EST
Temp
°C
App
Temp
°C
Dew
Point
Rel
Hum
%
Delta-T
°C
Wind Press
QNH
hPa
Press
MSL
hPa
Rain
since 9 am
mm
Dir
 
Spd
km/h
Gust
km/h
Spd
kts
Gust
kts
23/03:00pm 16.0 13.2 15.4 96 0.3 S 24 43 13 23 1017.1 1017.0 28.8
23/02:44pm 16.3 12.9 15.7 96 0.4 S 28 46 15 25 1016.8 1016.7 26.8
23/02:30pm 16.2 14.9 15.7 97 0.3 S 17 32 9 17 1016.8 1016.7 23.6
23/02:00pm 15.8 11.3 15.0 95 0.5 S 32 48 17 26 1017.0 1016.9 13.0
23/01:55pm 16.1 12.4 15.1 94 0.6 S 28 46 15 25 1016.9 1016.8 5.8
23/01:44pm 16.5 13.4 15.5 94 0.6 S 26 46 14 25 1016.8 1016.7 1.4
23/01:30pm 16.9 13.0 15.6 92 0.8 S 30 48 16 26 1016.8 1016.7 0.4
23/01:24pm 17.0 13.1 15.5 91 0.9 S 30 48 16 26 1016.7 1016.6 0.4
23/01:00pm 17.1 14.8 15.8 92 0.8 SSW 22 33 12 18 1017.0 1016.9 0.4
23/12:42pm 17.5 13.3 15.8 90 1.0 SSW 32 46 17 25 1017.1 1017.0 0.0
23/12:30pm 18.5 14.8 15.9 85 1.5 SSW 30 43 16 23 1017.1 1017.0 0.0
23/12:00pm 17.8 15.5 15.8 88 1.2 SSW 22 32 12 17 1017.7 1017.6 0.0
23/11:41am 17.2 14.5 15.5 90 1.0 SSW 24 35 13 19 1018.1 1018.1 0.0
23/11:37am 17.3 14.7 15.8 91 0.9 SSW 24 35 13 19 1018.2 1018.2 0.0
23/11:30am 17.5 14.5 15.8 90 1.0 SSW 26 39 14 21 1018.3 1018.3 0.0
23/11:29am 17.5 14.1 15.8 90 1.0 SSW 28 39 15 21 1018.3 1018.3 0.0
23/11:22am 17.3 13.8 15.5 89 1.1 SSW 28 39 15 21 1018.4 1018.4 0.0
23/11:18am 17.3 14.3 14.9 86 1.4 SSW 24 39 13 21 1018.4 1018.4 0.0
23/11:00am 18.4 14.7 15.1 81 1.9 SSW 28 41 15 22 1018.6 1018.6 0.0
23/10:30am 19.3 15.5 14.6 74 2.7 SSW 28 41 15 22 1018.9 1018.9 0.0
23/10:00am 18.7 16.1 14.8 78 2.3 S 22 35 12 19 1019.2 1019.2 0.0
23/09:40am 18.1 14.6 14.4 79 2.1 SSW 26 35 14 19 1019.4 1019.4 0.0
23/09:30am 17.5 13.9 14.2 81 1.9 SSW 26 39 14 21 1019.5 1019.5 0.0
23/09:00am 17.3 14.5 14.2 82 1.8 SSW 22 35 12 19 1019.7 1019.7 55.4
23/08:30am 16.3 13.8 14.1 87 1.2 SSW 20 28 11 15 1019.7 1019.7 55.4
23/08:00am 15.7 13.3 13.9 89 1.0 SSW 19 26 10 14 1019.5 1019.5 55.4
23/07:30am 15.6 13.5 13.6 88 1.1 SSW 17 32 9 17 1019.2 1019.2 55.4
23/07:00am 15.5 13.4 13.5 88 1.1 SSW 17 24 9 13 1019.2 1019.2 55.4
23/06:42am 15.4 13.2 13.4 88 1.1 SSW 17 26 9 14 1019.1 1019.1 55.4
23/06:30am 15.4 13.2 13.4 88 1.1 SSW 17 24 9 13 1019.0 1019.0 55.4
23/06:22am 15.4 13.3 13.6 89 1.0 SSW 17 26 9 14 1018.9 1018.9 55.4
23/06:00am 15.3 12.8 13.5 89 1.0 SSW 19 30 10 16 1018.7 1018.7 55.4
23/05:30am 15.4 12.9 13.4 88 1.1 SSW 19 30 10 16 1018.6 1018.6 55.4
23/05:18am 15.4 12.9 13.6 89 1.0 SSW 19 30 10 16 1018.5 1018.5 55.4
23/05:00am 15.3 13.2 13.7 90 0.9 SSW 17 26 9 14 1018.3 1018.3 55.4
23/04:30am 15.2 12.7 13.6 90 0.9 SSW 19 28 10 15 1018.1 1018.1 55.4
23/04:00am 15.2 13.2 13.9 92 0.7 S 17 28 9 15 1018.2 1018.2 55.4
23/03:30am 15.1 12.7 13.8 92 0.7 SSW 19 26 10 14 1018.5 1018.5 55.4
23/03:00am 15.0 12.4 13.7 92 0.7 SSW 20 28 11 15 1018.7 1018.7 55.4
23/02:55am 15.0 12.6 13.7 92 0.7 SSW 19 26 10 14 1018.8 1018.8 55.4
23/02:30am 14.9 12.4 13.6 92 0.7 SSW 19 28 10 15 1019.0 1019.0 55.4
23/02:00am 14.8 12.4 13.7 93 0.6 SSW 19 26 10 14 1019.2 1019.2 55.2
23/01:30am 14.8 12.7 13.7 93 0.6 SSW 17 26 9 14 1019.5 1019.5 55.2
23/01:00am 14.9 12.5 13.8 93 0.6 SSW 19 26 10 14 1020.0 1020.0 55.2
23/12:42am 15.0 12.6 13.9 93 0.6 SSW 19 28 10 15 1020.2 1020.2 55.2
23/12:30am 15.0 12.6 13.9 93 0.6 SSW 19 26 10 14 1020.3 1020.3 55.2
23/12:11am 15.1 12.8 14.1 94 0.6 SSW 19 28 10 15 1020.3 1020.3 55.2
23/12:04am 15.2 12.9 14.2 94 0.6 SSW 19 26 10 14 1020.4 1020.4 55.2
23/12:00am 15.2 12.7 14.2 94 0.6 SSW 20 33 11 18 1020.4 1020.4 55.2
 
Date/Time
EST
Temp
°C
App
Temp
°C
Dew
Point
Rel
Hum
%
Delta-T
°C
Wind Press
QNH
hPa
Press
MSL
hPa
Rain
since 9 am
mm
Dir
 
Spd
km/h
Gust
km/h
Spd
kts
Gust
kts
22/11:30pm 15.2 12.7 14.2 94 0.6 SSW 20 32 11 17 1020.8 1020.8 55.2
22/11:00pm 15.2 13.0 14.4 95 0.5 SSW 19 28 10 15 1020.8 1020.8 55.2
22/10:30pm 15.3 13.1 14.5 95 0.5 SSW 19 28 10 15 1021.0 1021.0 55.0
22/10:22pm 15.3 13.1 14.5 95 0.5 SSW 19 28 10 15 1021.2 1021.2 55.0
22/10:00pm 15.2 12.1 14.4 95 0.5 S 24 35 13 19 1020.9 1020.9 54.8
22/09:30pm 15.1 12.2 14.1 94 0.6 S 22 41 12 22 1021.4 1021.4 54.0
22/09:14pm 15.0 10.6 14.0 94 0.6 SSE 30 50 16 27 1020.6 1020.6 53.6
22/09:00pm 14.9 12.4 14.1 95 0.4 S 20 39 11 21 1021.6 1021.6 53.0
22/08:48pm 14.9 12.6 14.1 95 0.5 S 19 32 10 17 1021.9 1021.9 52.8
22/08:30pm 14.7 13.5 14.1 96 0.3 S 13 22 7 12 1022.1 1022.1 52.4
22/08:24pm 14.6 13.8 14.0 96 0.3 S 11 19 6 10 1022.2 1022.2 51.8
22/08:01pm 14.5 13.3 13.9 96 0.3 S 13 20 7 11 1022.0 1022.0 51.2
22/08:00pm 14.5 12.9 13.9 96 0.3 S 15 20 8 11 1022.0 1022.0 51.2
22/07:30pm 14.4 12.4 13.8 96 0.3 SSW 17 26 9 14 1021.5 1021.5 50.6
22/07:22pm 14.3 11.9 13.7 96 0.3 SSW 19 28 10 15 1021.6 1021.6 50.4
22/07:01pm 14.3 11.2 13.5 95 0.4 SSW 22 35 12 19 1021.3 1021.3 50.2
22/07:00pm 14.3 11.2 13.5 95 0.4 SSW 22 35 12 19 1021.3 1021.3 50.2
22/06:30pm 14.7 11.8 13.9 95 0.4 SSW 22 32 12 17 1021.1 1021.1 49.8
22/06:14pm 14.7 12.8 14.1 96 0.3 SW 17 26 9 14 1021.3 1021.3 49.2
22/06:00pm 14.8 12.5 14.2 96 0.3 SW 19 28 10 15 1020.9 1020.9 48.6
22/05:59pm 14.8 12.5 14.2 96 0.3 SSW 19 28 10 15 1020.9 1020.9 48.6
22/05:52pm 14.9 12.7 14.3 96 0.3 SW 19 24 10 13 1020.8 1020.8 48.0
22/05:30pm 15.2 12.5 14.6 96 0.3 SSW 22 32 12 17 1020.8 1020.8 46.2
22/05:29pm 15.2 12.5 14.6 96 0.3 SSW 22 32 12 17 1020.8 1020.8 46.2
22/05:25pm 15.2 12.4 14.4 95 0.5 SSW 22 32 12 17 1020.8 1020.8 45.2
22/05:19pm 15.3 12.6 14.5 95 0.5 SSW 22 33 12 18 1020.7 1020.7 44.2
22/05:05pm 15.5 13.2 14.7 95 0.5 SSW 20 32 11 17 1020.6 1020.6 43.2
22/05:04pm 15.5 13.2 14.7 95 0.5 SSW 20 32 11 17 1020.6 1020.6 43.0
22/05:00pm 15.5 13.2 14.7 95 0.5 SSW 20 30 11 16 1020.7 1020.7 42.4
22/04:30pm 15.8 14.2 15.0 95 0.5 SSW 17 24 9 13 1020.7 1020.7 41.8
22/04:00pm 16.1 14.2 15.3 95 0.5 SSW 19 28 10 15 1020.4 1020.4 40.8
22/03:59pm 16.1 14.2 15.3 95 0.5 SSW 19 28 10 15 1020.4 1020.4 40.8
22/03:44pm 16.3 14.4 15.3 94 0.6 S 19 26 10 14 1020.3 1020.3 40.4
22/03:43pm 16.5 14.7 15.5 94 0.6 S 19 24 10 13 1020.3 1020.3 40.4
22/03:30pm 17.0 16.2 16.2 95 0.5 S 15 26 8 14 1020.4 1020.4 39.4
22/03:19pm 17.2 16.5 16.4 95 0.5 SSW 15 24 8 13 1020.3 1020.3 38.6
22/03:18pm 17.1 16.4 16.3 95 0.5 SSW 15 24 8 13 1020.3 1020.3 38.6
22/03:01pm 16.9 16.8 16.1 95 0.5 S 11 17 6 9 1020.3 1020.3 38.0
22/03:00pm 16.8 16.7 16.0 95 0.5 S 11 19 6 10 1020.3 1020.3 38.0
22/02:30pm 16.4 14.6 14.4 88 1.1 S 17 44 9 24 1020.6 1020.6 30.0
22/02:06pm 17.8 17.6 16.7 93 0.7 SSE 13 20 7 11 1020.4 1020.4 28.2
22/02:00pm 17.7 17.1 16.6 93 0.7 SSE 15 22 8 12 1020.3 1020.3 28.0
22/01:42pm 18.2 17.6 16.7 91 0.9 SSE 15 20 8 11 1020.6 1020.6 25.0
22/01:30pm 18.5 18.3 16.8 90 1.0 S 13 19 7 10 1020.3 1020.3 22.0
22/01:00pm 18.5 18.9 17.2 92 0.8 S 11 17 6 9 1020.5 1020.5 21.8
22/12:30pm 18.4 18.3 16.9 91 0.9 S 13 20 7 11 1021.0 1021.0 21.4
22/12:00pm 18.2 18.8 16.9 92 0.8 SSE 9 22 5 12 1021.6 1021.6 21.2
22/11:52am 18.0 18.7 17.0 94 0.6 SSE 9 13 5 7 1021.7 1021.7 21.0
22/11:33am 17.2 19.4 16.4 95 0.5 CALM 0 4 0 2 1022.1 1022.1 20.2
22/11:30am 17.0 18.6 16.0 94 0.6 W 2 6 1 3 1022.2 1022.2 20.0
22/11:17am 17.1 18.1 16.3 95 0.5 S 6 9 3 5 1022.2 1022.2 19.6
22/11:00am 16.7 16.4 15.4 92 0.8 W 11 20 6 11 1022.5 1022.5 19.2
22/10:38am 17.1 17.4 16.1 94 0.6 SSW 9 15 5 8 1022.9 1022.9 3.4
22/10:30am 17.3 17.7 16.3 94 0.6 SSW 9 15 5 8 1022.8 1022.8 1.4
22/10:24am 17.2 17.1 16.1 93 0.7 S 11 19 6 10 1023.0 1023.0 0.8
22/10:00am 17.7 16.6 16.4 92 0.8 S 17 26 9 14 1022.8 1022.8 0.0
22/09:53am 17.6 16.5 16.3 92 0.8 S 17 26 9 14 1022.8 1022.8 0.0
22/09:30am 17.3 16.1 16.2 93 0.7 SSW 17 24 9 13 1022.7 1022.7 0.0
22/09:00am 16.4 15.0 15.6 95 0.5 SSW 17 26 9 14 1022.9 1022.9 5.8
22/08:30am 16.1 14.7 15.5 96 0.3 SSW 17 24 9 13 1022.7 1022.7 5.4
22/08:00am 15.5 13.4 14.7 95 0.5 S 19 32 10 17 1022.5 1022.5 5.4
22/07:30am 15.3 13.1 14.5 95 0.5 S 19 28 10 15 1022.2 1022.2 5.2
22/07:00am 15.1 12.9 14.3 95 0.5 SSW 19 26 10 14 1022.0 1022.0 5.0
22/06:30am 14.9 12.5 13.9 94 0.6 SSW 19 28 10 15 1021.8 1021.8 5.0
22/06:00am 15.1 12.8 14.1 94 0.6 SSW 19 26 10 14 1021.4 1021.4 4.8
22/05:30am 15.1 13.2 14.1 94 0.6 S 17 26 9 14 1021.1 1021.1 4.8
22/05:24am 15.1 13.2 14.1 94 0.6 S 17 24 9 13 1021.0 1021.0 4.8
22/05:22am 15.1 13.2 14.1 94 0.6 S 17 24 9 13 1021.0 1021.0 4.8
22/05:00am 15.0 13.1 14.2 95 0.5 S 17 24 9 13 1020.9 1020.9 4.8
22/04:59am 15.0 13.1 14.2 95 0.5 S 17 26 9 14 1020.8 1020.8 4.8
22/04:40am 14.9 13.0 14.1 95 0.5 SSW 17 24 9 13 1020.8 1020.8 4.8
22/04:30am 14.9 13.0 14.1 95 0.5 S 17 30 9 16 1020.7 1020.7 4.8
22/04:00am 15.0 12.5 14.2 95 0.5 SSW 20 32 11 17 1020.7 1020.7 4.8
22/03:30am 15.0 12.5 14.2 95 0.5 SSW 20 30 11 16 1020.6 1020.6 4.6
22/03:25am 15.0 12.2 14.2 95 0.5 SSW 22 32 12 17 1020.5 1020.5 4.6
22/03:03am 15.1 12.3 14.3 95 0.5 SSW 22 35 12 19 1020.8 1020.8 3.4
22/03:00am 15.2 12.4 14.2 94 0.6 SSW 22 35 12 19 1020.8 1020.8 3.0
22/02:48am 15.3 12.5 14.3 94 0.6 S 22 32 12 17 1020.5 1020.5 2.2
22/02:41am 15.4 12.6 14.3 93 0.6 SSW 22 32 12 17 1020.7 1020.7 1.0
22/02:30am 16.0 13.8 14.4 90 0.9 SSW 19 30 10 16 1021.0 1021.0 0.0
22/02:00am 16.0 14.7 14.9 93 0.6 SSW 15 20 8 11 1021.4 1021.4 0.0
22/01:54am 16.0 14.7 14.9 93 0.6 SSW 15 20 8 11 1021.5 1021.5 0.0
22/01:42am 16.0 14.0 14.9 93 0.6 SSW 19 30 10 16 1021.4 1021.4 0.0
22/01:30am 16.1 14.4 14.8 92 0.7 SSW 17 24 9 13 1021.5 1021.5 0.0
22/01:07am 16.1 14.8 14.8 92 0.7 SSW 15 24 8 13 1021.6 1021.6 0.0
22/01:00am 16.1 14.8 14.8 92 0.7 SSW 15 24 8 13 1021.6 1021.6 0.0
22/12:30am 16.3 15.0 14.7 90 0.9 SSW 15 20 8 11 1021.8 1021.8 0.0
22/12:00am 16.2 14.8 14.6 90 0.9 SSW 15 20 8 11 1022.0 1022.0 0.0
 
Date/Time
EST
Temp
°C
App
Temp
°C
Dew
Point
Rel
Hum
%
Delta-T
°C
Wind Press
QNH
hPa
Press
MSL
hPa
Rain
since 9 am
mm
Dir
 
Spd
km/h
Gust
km/h
Spd
kts
Gust
kts
21/11:30pm 16.4 14.6 14.4 88 1.1 SSW 17 24 9 13 1022.0 1022.0 0.0
21/11:00pm 16.5 14.3 14.3 87 1.3 SSW 19 26 10 14 1021.9 1021.9 0.0
21/10:30pm 16.6 15.2 14.6 88 1.1 SSW 15 20 8 11 1022.1 1022.1 0.0
21/10:00pm 16.7 15.4 14.7 88 1.1 S 15 22 8 12 1021.9 1021.9 0.0
21/09:30pm 16.9 14.7 14.5 86 1.4 S 19 28 10 15 1021.9 1021.9 0.0
21/09:00pm 17.0 15.3 14.6 86 1.4 S 17 24 9 13 1021.9 1021.9 0.0
21/08:30pm 17.1 16.3 15.1 88 1.2 S 13 22 7 12 1021.6 1021.6 0.0
21/08:00pm 17.0 15.7 14.8 87 1.3 S 15 24 8 13 1021.4 1021.4 0.0
21/07:30pm 16.9 15.9 14.5 86 1.4 S 13 19 7 10 1021.2 1021.2 0.0
21/07:00pm 16.9 15.6 14.7 87 1.3 S 15 20 8 11 1021.1 1021.1 0.0
21/06:30pm 17.0 15.6 14.6 86 1.4 S 15 22 8 12 1020.5 1020.5 0.0
21/06:00pm 17.4 15.3 14.7 84 1.6 S 19 28 10 15 1020.3 1020.3 0.0
21/05:30pm 17.9 16.4 15.2 84 1.6 SE 17 22 9 12 1020.3 1020.3 0.0
21/05:00pm 18.9 17.1 14.4 75 2.6 SSE 17 32 9 17 1020.0 1020.0 0.0
21/04:30pm 19.1 17.3 14.4 74 2.7 S 17 32 9 17 1019.4 1019.4 0.0
21/04:00pm 17.8 16.2 15.1 84 1.6 S 17 32 9 17 1019.6 1019.6 0.0
21/03:30pm 19.7 17.2 14.1 70 3.2 SSE 20 35 11 19 1019.3 1019.3 0.0
21/03:00pm 20.1 16.8 14.0 68 3.5 SSE 24 39 13 21 1019.3 1019.3 0.0
21/02:30pm 20.8 18.0 14.2 66 3.8 SSE 22 35 12 19 1019.4 1019.4 0.0
21/02:00pm 20.8 17.9 14.0 65 3.9 SSE 22 33 12 18 1019.5 1019.5 0.0
21/01:30pm 20.2 16.9 13.9 67 3.6 SSE 24 39 13 21 1019.8 1019.8 0.0
21/01:00pm 20.6 17.3 14.0 66 3.8 SSE 24 39 13 21 1019.9 1019.9 0.0
21/12:30pm 20.6 17.3 14.0 66 3.8 SSE 24 43 13 23 1020.2 1020.2 0.0
21/12:00pm 20.5 16.7 13.7 65 3.9 SSE 26 37 14 20 1020.6 1020.6 0.0
21/11:30am 21.0 18.2 14.2 65 4.0 SE 22 39 12 21 1020.8 1020.8 0.0
21/11:00am 20.2 16.7 13.4 65 3.9 SE 24 41 13 22 1021.2 1021.2 0.0
21/10:30am 21.2 19.2 13.9 63 4.2 SSE 17 35 9 19 1021.3 1021.3 0.0
21/10:00am 20.2 17.6 13.9 67 3.6 S 20 28 11 15 1021.4 1021.4 0.0
21/09:30am 19.3 17.2 13.7 70 3.2 S 17 24 9 13 1021.6 1021.6 0.0
21/09:00am 17.9 15.7 13.4 75 2.5 S 17 28 9 15 1021.7 1021.7 0.0
21/08:30am 17.6 15.4 13.3 76 2.4 S 17 26 9 14 1021.6 1021.6 0.0
21/08:00am 16.8 14.9 13.1 79 2.1 S 15 22 8 12 1021.4 1021.4 0.0
21/07:30am 16.4 14.5 13.1 81 1.8 S 15 24 8 13 1021.1 1021.1 0.0
21/07:00am 15.9 14.4 13.0 83 1.6 S 13 24 7 13 1021.0 1021.0 0.0
21/06:30am 15.6 14.0 12.9 84 1.5 S 13 20 7 11 1020.6 1020.6 0.0
21/06:00am 15.4 13.5 12.9 85 1.4 S 15 20 8 11 1020.5 1020.5 0.0
21/05:30am 15.3 13.4 13.0 86 1.3 SSW 15 20 8 11 1020.1 1020.1 0.0
21/05:00am 15.2 13.3 13.1 87 1.2 SSW 15 20 8 11 1019.8 1019.8 0.0
21/04:30am 15.3 13.9 13.3 88 1.1 SSW 13 20 7 11 1019.9 1019.9 0.0
21/04:00am 15.3 13.9 13.5 89 1.0 SSW 13 17 7 9 1019.7 1019.7 0.0
21/03:30am 15.2 13.9 13.6 90 0.9 SSW 13 19 7 10 1019.7 1019.7 0.0
21/03:00am 14.8 13.0 13.2 90 0.9 SSW 15 19 8 10 1019.7 1019.7 0.0
21/02:30am 14.6 13.1 13.1 91 0.8 SSW 13 17 7 9 1019.8 1019.8 0.0
21/02:00am 14.5 13.0 13.0 91 0.8 SW 13 17 7 9 1020.1 1020.1 0.0
21/01:30am 14.5 13.4 13.2 92 0.7 SW 11 15 6 8 1020.2 1020.2 0.0
21/01:00am 14.5 13.5 13.4 93 0.6 SSW 11 15 6 8 1020.6 1020.6 0.0
21/12:30am 14.0 13.3 13.2 95 0.4 SW 9 13 5 7 1020.4 1020.4 0.0
21/12:00am 13.3 12.4 12.5 95 0.4 SW 9 11 5 6 1020.4 1020.4 0.0
 
Date/Time
EST
Temp
°C
App
Temp
°C
Dew
Point
Rel
Hum
%
Delta-T
°C
Wind Press
QNH
hPa
Press
MSL
hPa
Rain
since 9 am
mm
Dir
 
Spd
km/h
Gust
km/h
Spd
kts
Gust
kts
20/11:30pm 13.3 12.8 12.5 95 0.4 SW 7 9 4 5 1020.4 1020.4 0.0
20/11:00pm 13.5 13.0 12.6 94 0.5 SSW 7 9 4 5 1020.6 1020.6 0.0
20/10:30pm 13.8 13.0 13.0 95 0.4 S 9 11 5 6 1020.8 1020.8 0.0
20/10:00pm 13.4 12.8 12.3 93 0.6 SSW 7 7 4 4 1021.0 1021.0 0.0
20/09:30pm 13.6 13.1 12.5 93 0.6 SSW 7 9 4 5 1021.1 1021.1 0.0
20/09:00pm 13.8 13.4 12.4 91 0.8 SSW 6 7 3 4 1020.9 1020.9 0.0
20/08:30pm 14.3 13.8 12.7 90 0.9 S 7 7 4 4 1021.0 1021.0 0.0
20/08:00pm 14.8 14.2 12.3 85 1.4 S 7 9 4 5 1021.0 1021.0 0.0
20/07:30pm 16.8 16.1 13.1 79 2.1 SSE 9 13 5 7 1020.7 1020.7 0.0
20/07:00pm 17.4 16.4 13.5 78 2.2 SE 11 15 6 8 1020.4 1020.4 0.0
20/06:30pm 17.4 16.7 13.3 77 2.3 SE 9 15 5 8 1020.0 1020.0 0.0
20/06:00pm 18.0 16.6 13.3 74 2.6 SSE 13 19 7 10 1019.7 1019.7 0.0
20/05:30pm 18.2 16.8 13.3 73 2.8 SE 13 20 7 11 1019.2 1019.2 0.0
20/05:00pm 19.0 16.8 13.2 69 3.3 SE 17 28 9 15 1018.8 1018.8 0.0
20/04:30pm 19.7 16.7 12.7 64 3.9 SE 20 30 11 16 1018.3 1018.3 0.0
20/04:00pm 20.2 17.4 12.7 62 4.2 SE 19 28 10 15 1017.9 1017.8 0.0
20/03:30pm 20.5 17.2 12.7 61 4.4 ESE 22 32 12 17 1017.7 1017.6 0.0

Other Formats:

Comma delimited format used in spreadsheet applications
http://www.bom.gov.au/fwo/IDQ60801/IDQ60801.95565.axf

JavaScript Object Notation format (JSON) in row-major order
http://www.bom.gov.au/fwo/IDQ60801/IDQ60801.95565.json